Wetterdaten: Woche 02.02.09 - 08.02.09 (KW6)
Datum Zeit Temperatur Luftfeuchte Luftdruck Niederschlag Wind Richtung Sonnenschein Solar Taupunkt Windchill Windben
02.02.2009 00:00 -1.6 C 89 % 1003.1 hPa 0.0 l/m 0.5 km/h (0 Bft) O-SO 0.00 h 0 W/m -3.1 C -1.6 C 1.7 km/h (1 Bft)
02.02.2009 01:00 -1.7 C 89 % 1002.3 hPa 0.0 l/m 1.6 km/h (1 Bft) O-SO 0.00 h 0 W/m -3.3 C -1.8 C 3.8 km/h (1 Bft)
02.02.2009 02:00 -2.5 C 87 % 1002.2 hPa 0.0 l/m 0.7 km/h (0 Bft) O-SO 0.00 h 0 W/m -4.4 C -2.6 C 1.4 km/h (1 Bft)
02.02.2009 03:00 -2.4 C 86 % 1002.0 hPa 0.0 l/m 1.8 km/h (1 Bft) O-SO 0.00 h 0 W/m -4.5 C -2.8 C 3.9 km/h (1 Bft)
02.02.2009 04:00 -2.3 C 85 % 1001.6 hPa 0.0 l/m 0.8 km/h (0 Bft) O 0.00 h 0 W/m -4.5 C -2.3 C 2.1 km/h (1 Bft)
02.02.2009 05:00 -2.2 C 84 % 1001.3 hPa 0.0 l/m 3.1 km/h (1 Bft) O-SO 0.00 h 0 W/m -4.6 C -3.0 C 6.1 km/h (2 Bft)
02.02.2009 06:00 -1.9 C 83 % 1001.0 hPa 0.0 l/m 0.5 km/h (0 Bft) N-NO 0.00 h 0 W/m -4.4 C -1.9 C 2.0 km/h (1 Bft)
02.02.2009 07:00 -1.9 C 84 % 1001.1 hPa 0.0 l/m 1.0 km/h (0 Bft) N-NO 0.00 h 0 W/m -4.3 C -1.9 C 2.5 km/h (1 Bft)
02.02.2009 08:00 -1.5 C 82 % 1000.9 hPa 0.0 l/m 1.5 km/h (1 Bft) NO 0.00 h 10 W/m -4.2 C -1.6 C 3.4 km/h (1 Bft)
02.02.2009 09:00 -1.0 C 79 % 1000.2 hPa 0.0 l/m 5.4 km/h (1 Bft) O-SO 0.00 h 24 W/m -4.2 C -2.7 C 10.2 km/h (2 Bft)
02.02.2009 10:00 -0.6 C 78 % 999.8 hPa 0.0 l/m 4.3 km/h (1 Bft) O-SO 0.00 h 40 W/m -4.0 C -1.6 C 8.2 km/h (2 Bft)
02.02.2009 11:00 0.3 C 75 % 999.5 hPa 0.0 l/m 3.5 km/h (1 Bft) O-SO 0.00 h 102 W/m -3.7 C -0.6 C 6.3 km/h (2 Bft)
02.02.2009 12:00 1.3 C 71 % 998.6 hPa 0.0 l/m 2.9 km/h (1 Bft) O-SO 0.00 h 195 W/m -3.4 C 0.7 C 5.2 km/h (1 Bft)
02.02.2009 13:00 1.6 C 71 % 998.4 hPa 0.0 l/m 5.3 km/h (1 Bft) O-SO 0.15 h 195 W/m -3.1 C 0.2 C 8.1 km/h (2 Bft)
02.02.2009 14:00 2.9 C 69 % 997.7 hPa 0.0 l/m 2.3 km/h (1 Bft) S 0.93 h 279 W/m -2.3 C 2.8 C 4.4 km/h (1 Bft)
02.02.2009 15:00 4.3 C 65 % 997.0 hPa 0.0 l/m 1.8 km/h (1 Bft) S 1.00 h 210 W/m -1.7 C 4.1 C 3.8 km/h (1 Bft)
02.02.2009 16:00 3.5 C 69 % 996.8 hPa 0.0 l/m 2.2 km/h (1 Bft) SO 0.30 h 73 W/m -1.7 C 3.4 C 4.1 km/h (1 Bft)
02.02.2009 17:00 1.8 C 76 % 997.0 hPa 0.0 l/m 1.7 km/h (1 Bft) SO 0.17 h 16 W/m -2.1 C 1.6 C 2.6 km/h (1 Bft)
02.02.2009 18:00 0.9 C 78 % 997.3 hPa 0.0 l/m 0.3 km/h (0 Bft) SO 0.00 h 0 W/m -2.5 C 0.9 C 0.7 km/h (0 Bft)
02.02.2009 19:00 0.1 C 81 % 997.4 hPa 0.0 l/m 0.4 km/h (0 Bft) SO 0.00 h 0 W/m -2.8 C 0.1 C 0.7 km/h (0 Bft)
02.02.2009 20:00 -0.7 C 85 % 997.8 hPa 0.0 l/m 0.9 km/h (0 Bft) SO 0.00 h 0 W/m -3.0 C -0.7 C 1.8 km/h (1 Bft)
02.02.2009 21:00 -1.0 C 86 % 997.9 hPa 0.0 l/m 0.3 km/h (0 Bft) SO 0.00 h 0 W/m -3.0 C -1.0 C 0.8 km/h (0 Bft)
02.02.2009 22:00 -1.4 C 88 % 998.0 hPa 0.0 l/m 0.6 km/h (0 Bft) SO 0.00 h 0 W/m -3.1 C -1.4 C 1.3 km/h (1 Bft)
02.02.2009 23:00 -1.4 C 90 % 998.4 hPa 0.0 l/m 0.9 km/h (0 Bft) SO 0.00 h 0 W/m -2.8 C -1.4 C 1.4 km/h (1 Bft)
03.02.2009 00:00 -1.4 C 90 % 998.9 hPa 0.0 l/m 0.2 km/h (0 Bft) SO 0.00 h 0 W/m -2.9 C -1.4 C 0.8 km/h (0 Bft)
03.02.2009 01:00 -2.1 C 91 % 999.0 hPa 0.0 l/m 1.4 km/h (1 Bft) SO 0.00 h 0 W/m -3.4 C -2.1 C 2.5 km/h (1 Bft)
03.02.2009 02:00 -2.4 C 92 % 999.0 hPa 0.0 l/m 0.7 km/h (0 Bft) SO 0.00 h 0 W/m -3.5 C -2.4 C 1.2 km/h (1 Bft)
03.02.2009 03:00 -2.8 C 93 % 999.0 hPa 0.0 l/m 0.3 km/h (0 Bft) SO 0.00 h 0 W/m -3.8 C -2.8 C 0.7 km/h (0 Bft)
03.02.2009 04:00 -2.9 C 93 % 999.1 hPa 0.0 l/m 0.0 km/h (0 Bft) N 0.00 h 0 W/m -3.9 C -2.9 C 0.0 km/h (0 Bft)
03.02.2009 05:00 -3.0 C 94 % 999.7 hPa 0.0 l/m 0.9 km/h (0 Bft) SO 0.00 h 0 W/m -3.9 C -3.0 C 1.7 km/h (1 Bft)
03.02.2009 06:00 -3.4 C 94 % 1000.1 hPa 0.0 l/m 1.0 km/h (0 Bft) SO 0.00 h 0 W/m -4.2 C -3.4 C 1.6 km/h (1 Bft)
03.02.2009 07:00 -3.7 C 94 % 1000.6 hPa 0.0 l/m 1.9 km/h (1 Bft) O-SO 0.00 h 5 W/m -4.5 C -3.8 C 3.0 km/h (1 Bft)
03.02.2009 08:00 -3.9 C 95 % 1000.6 hPa 0.0 l/m 0.0 km/h (0 Bft) O-SO 0.00 h 28 W/m -4.6 C -3.9 C 0.4 km/h (0 Bft)
03.02.2009 09:00 -2.5 C 95 % 1000.8 hPa 0.0 l/m 0.4 km/h (0 Bft) O-SO 0.73 h 144 W/m -3.2 C -2.5 C 0.9 km/h (0 Bft)
03.02.2009 10:00 -0.6 C 90 % 1000.6 hPa 0.0 l/m 0.3 km/h (0 Bft) O-SO 0.58 h 190 W/m -2.0 C -0.6 C 1.0 km/h (0 Bft)
03.02.2009 11:00 1.8 C 82 % 999.9 hPa 0.0 l/m 0.3 km/h (0 Bft) O-SO 0.95 h 346 W/m -1.0 C 1.8 C 1.1 km/h (1 Bft)
03.02.2009 12:00 4.6 C 72 % 999.2 hPa 0.0 l/m 0.9 km/h (0 Bft) N-NW 1.00 h 378 W/m -0.1 C 4.6 C 2.5 km/h (1 Bft)
03.02.2009 13:00 7.1 C 65 % 998.6 hPa 0.0 l/m 1.8 km/h (1 Bft) N-NW 1.00 h 366 W/m 0.9 C 7.1 C 3.7 km/h (1 Bft)
03.02.2009 14:00 8.7 C 59 % 997.7 hPa 0.0 l/m 2.6 km/h (1 Bft) N-NW 0.87 h 272 W/m 1.0 C 8.6 C 4.5 km/h (1 Bft)
03.02.2009 15:00 9.4 C 57 % 997.3 hPa 0.0 l/m 1.5 km/h (1 Bft) N-NW 0.65 h 183 W/m 1.3 C 9.4 C 3.0 km/h (1 Bft)
03.02.2009 16:00 8.9 C 59 % 997.6 hPa 0.0 l/m 0.2 km/h (0 Bft) NW 0.37 h 78 W/m 1.3 C 8.9 C 1.3 km/h (1 Bft)
03.02.2009 17:00 6.0 C 70 % 998.1 hPa 0.0 l/m 0.5 km/h (0 Bft) O 0.02 h 11 W/m 0.8 C 5.9 C 1.1 km/h (1 Bft)
03.02.2009 18:00 3.4 C 78 % 998.7 hPa 0.0 l/m 2.1 km/h (1 Bft) O 0.00 h 0 W/m -0.0 C 3.3 C 3.4 km/h (1 Bft)
03.02.2009 19:00 2.0 C 83 % 999.2 hPa 0.0 l/m 1.2 km/h (1 Bft) O 0.00 h 0 W/m -0.7 C 1.9 C 2.0 km/h (1 Bft)
03.02.2009 20:00 1.0 C 86 % 999.8 hPa 0.0 l/m 2.1 km/h (1 Bft) O 0.00 h 0 W/m -1.1 C 0.9 C 3.6 km/h (1 Bft)
03.02.2009 21:00 0.7 C 89 % 1000.0 hPa 0.0 l/m 0.4 km/h (0 Bft) O 0.00 h 0 W/m -0.9 C 0.7 C 1.6 km/h (1 Bft)
03.02.2009 22:00 0.3 C 90 % 1000.1 hPa 0.0 l/m 0.3 km/h (0 Bft) O 0.00 h 0 W/m -1.2 C 0.3 C 1.0 km/h (0 Bft)
03.02.2009 23:00 -0.2 C 91 % 1000.0 hPa 0.0 l/m 0.9 km/h (0 Bft) O 0.00 h 0 W/m -1.5 C -0.2 C 2.2 km/h (1 Bft)
04.02.2009 00:00 -0.4 C 92 % 999.5 hPa 0.0 l/m 1.6 km/h (1 Bft) O-NO 0.00 h 0 W/m -1.5 C -0.4 C 2.5 km/h (1 Bft)
04.02.2009 01:00 -0.4 C 93 % 999.0 hPa 0.0 l/m 1.4 km/h (1 Bft) O 0.00 h 0 W/m -1.4 C -0.4 C 2.4 km/h (1 Bft)
04.02.2009 02:00 -0.8 C 93 % 999.0 hPa 0.0 l/m 0.6 km/h (0 Bft) O 0.00 h 0 W/m -1.7 C -0.8 C 1.5 km/h (1 Bft)
04.02.2009 03:00 -0.9 C 95 % 998.6 hPa 0.0 l/m 0.5 km/h (0 Bft) O 0.00 h 0 W/m -1.6 C -0.9 C 1.0 km/h (0 Bft)
04.02.2009 04:00 -0.8 C 96 % 998.6 hPa 0.0 l/m 0.3 km/h (0 Bft) O 0.00 h 0 W/m -1.4 C -0.8 C 0.7 km/h (0 Bft)
04.02.2009 05:00 -0.6 C 96 % 998.7 hPa 0.0 l/m 0.7 km/h (0 Bft) O-SO 0.00 h 0 W/m -1.1 C -0.7 C 1.2 km/h (1 Bft)
04.02.2009 06:00 -0.7 C 96 % 998.8 hPa 0.0 l/m 0.0 km/h (0 Bft) N 0.00 h 0 W/m -1.2 C -0.7 C 0.1 km/h (0 Bft)
04.02.2009 07:00 -0.9 C 97 % 999.0 hPa 0.0 l/m 0.8 km/h (0 Bft) SO 0.00 h 8 W/m -1.4 C -0.9 C 1.3 km/h (1 Bft)
04.02.2009 08:00 -0.6 C 97 % 999.3 hPa 0.0 l/m 0.0 km/h (0 Bft) SO 0.73 h 52 W/m -1.0 C -0.6 C 0.2 km/h (0 Bft)
04.02.2009 09:00 0.1 C 97 % 999.5 hPa 0.0 l/m 0.1 km/h (0 Bft) SO 0.00 h 91 W/m -0.4 C 0.1 C 0.5 km/h (0 Bft)
04.02.2009 10:00 1.1 C 93 % 999.1 hPa 0.0 l/m 0.2 km/h (0 Bft) SO 0.32 h 158 W/m 0.1 C 1.1 C 1.1 km/h (1 Bft)
04.02.2009 11:00 2.9 C 86 % 999.1 hPa 0.0 l/m 0.5 km/h (0 Bft) N-NW 0.78 h 276 W/m 0.7 C 2.9 C 1.6 km/h (1 Bft)
04.02.2009 12:00 5.2 C 77 % 998.7 hPa 0.0 l/m 0.8 km/h (0 Bft) N 0.83 h 356 W/m 1.4 C 5.2 C 2.2 km/h (1 Bft)
04.02.2009 13:00 7.0 C 69 % 998.2 hPa 0.0 l/m 1.5 km/h (1 Bft) O 0.95 h 366 W/m 1.8 C 6.9 C 3.2 km/h (1 Bft)
04.02.2009 14:00 7.7 C 66 % 997.9 hPa 0.0 l/m 1.6 km/h (1 Bft) O-SO 0.65 h 227 W/m 1.8 C 7.6 C 3.2 km/h (1 Bft)
04.02.2009 15:00 8.7 C 62 % 997.7 hPa 0.0 l/m 2.2 km/h (1 Bft) S-SO 0.70 h 201 W/m 1.9 C 8.7 C 4.3 km/h (1 Bft)
04.02.2009 16:00 7.7 C 66 % 997.9 hPa 0.0 l/m 1.3 km/h (1 Bft) SO 0.00 h 35 W/m 1.6 C 7.7 C 2.6 km/h (1 Bft)
04.02.2009 17:00 6.8 C 69 % 998.3 hPa 0.0 l/m 1.6 km/h (1 Bft) SO 0.00 h 12 W/m 1.4 C 6.8 C 2.8 km/h (1 Bft)
04.02.2009 18:00 5.5 C 74 % 998.5 hPa 0.0 l/m 3.1 km/h (1 Bft) O 0.00 h 0 W/m 1.2 C 5.3 C 4.6 km/h (1 Bft)
04.02.2009 19:00 3.9 C 81 % 999.0 hPa 0.0 l/m 1.6 km/h (1 Bft) O 0.00 h 0 W/m 0.9 C 3.9 C 2.4 km/h (1 Bft)
04.02.2009 20:00 2.9 C 84 % 999.3 hPa 0.0 l/m 0.6 km/h (0 Bft) O 0.00 h 0 W/m 0.5 C 2.9 C 1.3 km/h (1 Bft)
04.02.2009 21:00 1.9 C 88 % 999.6 hPa 0.0 l/m 1.7 km/h (1 Bft) O 0.00 h 0 W/m 0.1 C 1.8 C 2.4 km/h (1 Bft)
04.02.2009 22:00 1.3 C 90 % 999.8 hPa 0.0 l/m 0.3 km/h (0 Bft) O 0.00 h 0 W/m -0.1 C 1.3 C 0.8 km/h (0 Bft)
04.02.2009 23:00 0.8 C 92 % 999.8 hPa 0.0 l/m 0.7 km/h (0 Bft) O 0.00 h 0 W/m -0.4 C 0.8 C 1.4 km/h (1 Bft)
05.02.2009 00:00 0.2 C 93 % 999.3 hPa 0.0 l/m 0.1 km/h (0 Bft) N-NW 0.00 h 0 W/m -0.8 C 0.2 C 1.1 km/h (0 Bft)
05.02.2009 01:00 -0.4 C 95 % 999.1 hPa 0.0 l/m 0.7 km/h (0 Bft) N-NW 0.00 h 0 W/m -1.1 C -0.4 C 1.6 km/h (1 Bft)
05.02.2009 02:00 -0.8 C 96 % 998.8 hPa 0.0 l/m 0.1 km/h (0 Bft) N-NW 0.00 h 0 W/m -1.3 C -0.8 C 0.8 km/h (0 Bft)
05.02.2009 03:00 -1.2 C 97 % 998.3 hPa 0.0 l/m 0.9 km/h (0 Bft) N-NW 0.00 h 0 W/m -1.6 C -1.2 C 2.1 km/h (1 Bft)
05.02.2009 04:00 -1.3 C 98 % 998.0 hPa 0.0 l/m 1.1 km/h (0 Bft) N 0.00 h 0 W/m -1.6 C -1.3 C 2.5 km/h (1 Bft)
05.02.2009 05:00 -1.5 C 98 % 998.0 hPa 0.0 l/m 1.0 km/h (0 Bft) N-NO 0.00 h 0 W/m -1.8 C -1.5 C 1.9 km/h (1 Bft)
05.02.2009 06:00 -1.7 C 98 % 997.7 hPa 0.0 l/m 1.1 km/h (1 Bft) O 0.00 h 0 W/m -2.0 C -1.9 C 2.1 km/h (1 Bft)
05.02.2009 07:00 -1.8 C 98 % 997.8 hPa 0.0 l/m 0.7 km/h (0 Bft) O 0.02 h 7 W/m -2.1 C -1.9 C 1.3 km/h (1 Bft)
05.02.2009 08:00 -1.6 C 99 % 998.9 hPa 0.0 l/m 0.8 km/h (0 Bft) O 0.03 h 26 W/m -1.7 C -1.6 C 1.8 km/h (1 Bft)
05.02.2009 09:00 -0.7 C 99 % 998.6 hPa 0.0 l/m 1.1 km/h (1 Bft) S-SO 0.05 h 72 W/m -0.9 C -0.8 C 2.3 km/h (1 Bft)
05.02.2009 10:00 0.4 C 98 % 999.2 hPa 0.0 l/m 2.6 km/h (1 Bft) S-SO 0.00 h 111 W/m 0.1 C 0.1 C 4.7 km/h (1 Bft)
05.02.2009 11:00 2.2 C 93 % 999.9 hPa 0.0 l/m 1.6 km/h (1 Bft) S-SO 0.55 h 266 W/m 1.1 C 2.1 C 3.5 km/h (1 Bft)
05.02.2009 12:00 3.7 C 84 % 1000.2 hPa 0.0 l/m 1.9 km/h (1 Bft) S-SO 0.00 h 176 W/m 1.3 C 3.7 C 4.4 km/h (1 Bft)
05.02.2009 13:00 4.7 C 80 % 1000.0 hPa 0.0 l/m 1.9 km/h (1 Bft) O-SO 0.30 h 207 W/m 1.6 C 4.6 C 3.3 km/h (1 Bft)
05.02.2009 14:00 5.4 C 78 % 999.8 hPa 0.0 l/m 1.4 km/h (1 Bft) SO 0.00 h 125 W/m 1.9 C 5.4 C 3.1 km/h (1 Bft)
05.02.2009 15:00 5.3 C 78 % 999.3 hPa 0.0 l/m 2.5 km/h (1 Bft) O-SO 0.00 h 91 W/m 1.9 C 5.3 C 4.1 km/h (1 Bft)
05.02.2009 16:00 5.1 C 79 % 999.0 hPa 0.0 l/m 1.8 km/h (1 Bft) O-SO 0.22 h 59 W/m 1.8 C 5.0 C 3.2 km/h (1 Bft)
05.02.2009 17:00 4.2 C 82 % 999.1 hPa 0.0 l/m 1.4 km/h (1 Bft) O-SO 0.02 h 12 W/m 1.4 C 4.0 C 2.3 km/h (1 Bft)
05.02.2009 18:00 3.3 C 86 % 999.4 hPa 0.0 l/m 0.3 km/h (0 Bft) O-SO 0.00 h 0 W/m 1.2 C 3.3 C 1.1 km/h (1 Bft)
05.02.2009 19:00 2.5 C 89 % 999.3 hPa 0.0 l/m 1.1 km/h (1 Bft) O-SO 0.00 h 0 W/m 0.9 C 2.5 C 1.9 km/h (1 Bft)
05.02.2009 20:00 2.5 C 90 % 998.8 hPa 0.0 l/m 1.3 km/h (1 Bft) O-SO 0.00 h 0 W/m 1.0 C 2.4 C 2.3 km/h (1 Bft)
05.02.2009 21:00 2.4 C 91 % 998.6 hPa 0.0 l/m 0.7 km/h (0 Bft) N-NW 0.00 h 0 W/m 1.2 C 2.4 C 1.5 km/h (1 Bft)
05.02.2009 22:00 2.3 C 92 % 998.1 hPa 0.0 l/m 1.2 km/h (1 Bft) O-SO 0.00 h 0 W/m 1.1 C 2.0 C 2.1 km/h (1 Bft)
05.02.2009 23:00 2.4 C 91 % 997.4 hPa 0.0 l/m 2.5 km/h (1 Bft) SO 0.00 h 0 W/m 1.1 C 2.2 C 4.5 km/h (1 Bft)
06.02.2009 00:00 2.6 C 90 % 997.4 hPa 0.0 l/m 1.3 km/h (1 Bft) O 0.00 h 0 W/m 1.2 C 2.5 C 2.5 km/h (1 Bft)
06.02.2009 01:00 2.3 C 92 % 996.6 hPa 0.0 l/m 1.3 km/h (1 Bft) O-SO 0.00 h 0 W/m 1.1 C 2.2 C 2.1 km/h (1 Bft)
06.02.2009 02:00 2.3 C 92 % 996.7 hPa 0.0 l/m 2.5 km/h (1 Bft) O-SO 0.00 h 0 W/m 1.2 C 1.8 C 4.2 km/h (1 Bft)
06.02.2009 03:00 2.4 C 91 % 996.2 hPa 0.0 l/m 0.6 km/h (0 Bft) O 0.00 h 0 W/m 1.1 C 2.4 C 1.5 km/h (1 Bft)
06.02.2009 04:00 2.3 C 92 % 996.6 hPa 0.0 l/m 1.3 km/h (1 Bft) O 0.00 h 0 W/m 1.1 C 2.2 C 2.9 km/h (1 Bft)
06.02.2009 05:00 1.9 C 93 % 996.4 hPa 0.0 l/m 1.0 km/h (0 Bft) O-SO 0.00 h 0 W/m 0.9 C 1.9 C 1.9 km/h (1 Bft)
06.02.2009 06:00 1.6 C 93 % 995.8 hPa 0.0 l/m 2.4 km/h (1 Bft) O-SO 0.00 h 0 W/m 0.7 C 1.2 C 3.6 km/h (1 Bft)
06.02.2009 07:00 1.8 C 93 % 995.2 hPa 0.0 l/m 0.9 km/h (0 Bft) O-SO 0.00 h 5 W/m 0.8 C 1.7 C 1.4 km/h (1 Bft)
06.02.2009 08:00 1.6 C 94 % 995.3 hPa 0.0 l/m 1.5 km/h (1 Bft) O-SO 0.00 h 31 W/m 0.7 C 1.5 C 2.7 km/h (1 Bft)
06.02.2009 09:00 2.4 C 94 % 995.2 hPa 0.0 l/m 0.3 km/h (0 Bft) O-SO 0.13 h 103 W/m 1.6 C 2.4 C 0.8 km/h (0 Bft)
06.02.2009 10:00 4.4 C 87 % 994.7 hPa 0.0 l/m 0.6 km/h (0 Bft) O-SO 0.80 h 223 W/m 2.4 C 4.4 C 1.6 km/h (1 Bft)
06.02.2009 11:00 5.7 C 80 % 994.0 hPa 0.0 l/m 2.4 km/h (1 Bft) SO 0.55 h 265 W/m 2.5 C 5.5 C 4.3 km/h (1 Bft)
06.02.2009 12:00 7.0 C 74 % 993.3 hPa 0.0 l/m 0.6 km/h (0 Bft) S-SO 0.32 h 212 W/m 2.7 C 7.0 C 2.0 km/h (1 Bft)
06.02.2009 13:00 7.5 C 72 % 992.5 hPa 0.0 l/m 0.6 km/h (0 Bft) S-SO 0.68 h 284 W/m 2.7 C 7.5 C 1.7 km/h (1 Bft)
06.02.2009 14:00 7.7 C 69 % 991.6 hPa 0.0 l/m 1.2 km/h (1 Bft) O-SO 0.38 h 191 W/m 2.5 C 7.7 C 2.4 km/h (1 Bft)
06.02.2009 15:00 8.3 C 65 % 991.2 hPa 0.0 l/m 0.6 km/h (0 Bft) W-SW 0.20 h 125 W/m 2.1 C 8.3 C 1.4 km/h (1 Bft)
06.02.2009 16:00 7.7 C 70 % 991.0 hPa 0.0 l/m 0.3 km/h (0 Bft) W-SW 0.12 h 56 W/m 2.5 C 7.7 C 1.1 km/h (0 Bft)
06.02.2009 17:00 5.9 C 78 % 990.5 hPa 0.0 l/m 2.1 km/h (1 Bft) O 0.03 h 13 W/m 2.5 C 5.8 C 3.2 km/h (1 Bft)
06.02.2009 18:00 4.2 C 84 % 990.2 hPa 0.0 l/m 3.1 km/h (1 Bft) SO 0.00 h 0 W/m 1.7 C 3.8 C 4.4 km/h (1 Bft)
06.02.2009 19:00 3.4 C 87 % 990.0 hPa 0.0 l/m 1.4 km/h (1 Bft) O 0.00 h 0 W/m 1.5 C 3.4 C 2.6 km/h (1 Bft)
06.02.2009 20:00 3.1 C 89 % 989.6 hPa 0.0 l/m 0.8 km/h (0 Bft) O 0.00 h 0 W/m 1.5 C 3.1 C 1.6 km/h (1 Bft)
06.02.2009 21:00 2.9 C 90 % 989.3 hPa 0.0 l/m 1.1 km/h (1 Bft) O 0.00 h 0 W/m 1.3 C 2.7 C 1.8 km/h (1 Bft)
06.02.2009 22:00 2.6 C 91 % 989.3 hPa 0.0 l/m 1.0 km/h (0 Bft) N-NO 0.00 h 0 W/m 1.3 C 2.6 C 2.1 km/h (1 Bft)
06.02.2009 23:00 2.7 C 90 % 989.2 hPa 0.0 l/m 3.2 km/h (1 Bft) O-SO 0.00 h 0 W/m 1.3 C 2.2 C 4.6 km/h (1 Bft)
07.02.2009 00:00 2.4 C 91 % 989.5 hPa 0.0 l/m 4.6 km/h (1 Bft) O-SO 0.00 h 0 W/m 1.1 C 1.4 C 6.4 km/h (2 Bft)
07.02.2009 01:00 2.2 C 90 % 989.0 hPa 0.0 l/m 0.5 km/h (0 Bft) O-SO 0.00 h 0 W/m 0.8 C 2.2 C 1.2 km/h (1 Bft)
07.02.2009 02:00 2.2 C 92 % 988.7 hPa 0.0 l/m 2.7 km/h (1 Bft) O-SO 0.00 h 0 W/m 1.0 C 1.9 C 4.1 km/h (1 Bft)
07.02.2009 03:00 2.2 C 93 % 988.3 hPa 0.0 l/m 1.5 km/h (1 Bft) O-SO 0.00 h 0 W/m 1.1 C 2.1 C 2.3 km/h (1 Bft)
07.02.2009 04:00 2.2 C 93 % 987.8 hPa 0.0 l/m 1.1 km/h (1 Bft) O 0.00 h 0 W/m 1.2 C 2.1 C 2.2 km/h (1 Bft)
07.02.2009 05:00 2.3 C 94 % 988.0 hPa 0.0 l/m 0.9 km/h (0 Bft) O 0.00 h 0 W/m 1.5 C 2.2 C 1.5 km/h (1 Bft)
07.02.2009 06:00 2.5 C 95 % 987.8 hPa 0.0 l/m 1.2 km/h (1 Bft) O-SO 0.00 h 0 W/m 1.8 C 2.4 C 2.1 km/h (1 Bft)
07.02.2009 07:00 3.2 C 96 % 988.1 hPa 0.0 l/m 1.0 km/h (0 Bft) S-SO 0.00 h 0 W/m 2.6 C 3.1 C 2.5 km/h (1 Bft)
07.02.2009 08:00 3.3 C 96 % 988.5 hPa 0.0 l/m 2.3 km/h (1 Bft) W-NW 0.00 h 18 W/m 2.7 C 3.0 C 4.0 km/h (1 Bft)
07.02.2009 09:00 3.2 C 93 % 988.7 hPa 0.0 l/m 4.5 km/h (1 Bft) W-NW 0.00 h 50 W/m 2.2 C 2.4 C 7.1 km/h (2 Bft)
07.02.2009 10:00 3.8 C 88 % 988.7 hPa 0.0 l/m 5.3 km/h (1 Bft) W-SW 0.00 h 113 W/m 1.9 C 2.8 C 8.2 km/h (2 Bft)
07.02.2009 11:00 4.3 C 86 % 989.1 hPa 0.0 l/m 8.4 km/h (2 Bft) W 0.02 h 175 W/m 2.1 C 2.2 C 12.7 km/h (3 Bft)
07.02.2009 12:00 4.7 C 83 % 989.2 hPa 0.0 l/m 8.2 km/h (2 Bft) W 0.18 h 186 W/m 2.1 C 2.8 C 12.8 km/h (3 Bft)
07.02.2009 13:00 4.6 C 84 % 989.2 hPa 0.0 l/m 6.8 km/h (2 Bft) W-SW 0.00 h 138 W/m 2.1 C 3.1 C 10.2 km/h (2 Bft)
07.02.2009 14:00 4.8 C 83 % 989.1 hPa 0.0 l/m 8.8 km/h (2 Bft) W 0.17 h 164 W/m 2.2 C 2.7 C 13.6 km/h (3 Bft)
07.02.2009 15:00 4.5 C 84 % 989.5 hPa 0.0 l/m 7.5 km/h (2 Bft) W 0.00 h 60 W/m 2.1 C 2.8 C 12.1 km/h (2 Bft)
07.02.2009 16:00 4.4 C 85 % 989.9 hPa 0.0 l/m 6.2 km/h (2 Bft) W 0.00 h 30 W/m 2.0 C 3.0 C 9.7 km/h (2 Bft)
07.02.2009 17:00 4.1 C 87 % 990.6 hPa 0.0 l/m 4.1 km/h (1 Bft) W 0.00 h 7 W/m 2.2 C 3.5 C 6.5 km/h (2 Bft)
07.02.2009 18:00 3.8 C 88 % 991.1 hPa 0.0 l/m 2.4 km/h (1 Bft) W 0.00 h 0 W/m 2.0 C 3.7 C 4.8 km/h (1 Bft)
07.02.2009 19:00 3.8 C 87 % 991.8 hPa 0.0 l/m 4.8 km/h (1 Bft) W-NW 0.00 h 0 W/m 1.8 C 2.9 C 8.0 km/h (2 Bft)
07.02.2009 20:00 3.4 C 88 % 992.7 hPa 0.4 l/m 6.5 km/h (2 Bft) W 0.00 h 0 W/m 1.6 C 1.8 C 9.7 km/h (2 Bft)
07.02.2009 21:00 2.8 C 91 % 993.3 hPa 0.2 l/m 4.5 km/h (1 Bft) W 0.00 h 0 W/m 1.5 C 2.0 C 7.5 km/h (2 Bft)
07.02.2009 22:00 2.2 C 92 % 993.9 hPa 0.4 l/m 5.8 km/h (2 Bft) W 0.00 h 0 W/m 1.1 C 0.9 C 9.2 km/h (2 Bft)
07.02.2009 23:00 1.8 C 93 % 994.6 hPa 0.2 l/m 2.8 km/h (1 Bft) NW 0.00 h 0 W/m 0.7 C 1.3 C 5.2 km/h (1 Bft)
08.02.2009 00:00 1.3 C 93 % 995.1 hPa 0.8 l/m 2.6 km/h (1 Bft) W 0.00 h 0 W/m 0.3 C 1.0 C 5.0 km/h (1 Bft)
08.02.2009 01:00 0.8 C 94 % 995.5 hPa 1.0 l/m 1.3 km/h (1 Bft) S-SO 0.00 h 0 W/m -0.1 C 0.8 C 3.4 km/h (1 Bft)
08.02.2009 02:00 0.6 C 94 % 996.0 hPa 1.0 l/m 0.5 km/h (0 Bft) SW 0.00 h 0 W/m -0.2 C 0.6 C 2.0 km/h (1 Bft)
08.02.2009 03:00 0.7 C 95 % 996.5 hPa 0.8 l/m 0.8 km/h (0 Bft) S-SW 0.00 h 0 W/m -0.0 C 0.6 C 2.4 km/h (1 Bft)
08.02.2009 04:00 0.6 C 96 % 997.1 hPa 0.6 l/m 0.2 km/h (0 Bft) O-SO 0.00 h 0 W/m 0.0 C 0.6 C 1.0 km/h (0 Bft)
08.02.2009 05:00 0.6 C 96 % 998.0 hPa 0.6 l/m 0.5 km/h (0 Bft) O-SO 0.00 h 0 W/m 0.0 C 0.6 C 1.2 km/h (1 Bft)
08.02.2009 06:00 0.5 C 97 % 998.9 hPa 0.6 l/m 0.4 km/h (0 Bft) O-SO 0.00 h 0 W/m 0.0 C 0.5 C 0.8 km/h (0 Bft)
08.02.2009 07:00 0.5 C 97 % 1000.0 hPa 0.4 l/m 0.7 km/h (0 Bft) O-SO 0.00 h 0 W/m 0.0 C 0.5 C 1.6 km/h (1 Bft)
08.02.2009 08:00 0.7 C 97 % 1001.4 hPa 0.0 l/m 0.5 km/h (0 Bft) O-SO 0.00 h 12 W/m 0.3 C 0.7 C 1.4 km/h (1 Bft)
08.02.2009 09:00 1.0 C 98 % 1002.5 hPa 0.0 l/m 0.2 km/h (0 Bft) NW 0.00 h 40 W/m 0.7 C 1.0 C 0.8 km/h (0 Bft)
08.02.2009 10:00 1.4 C 97 % 1003.6 hPa 0.0 l/m 0.4 km/h (0 Bft) NW 0.00 h 77 W/m 1.1 C 1.4 C 1.4 km/h (1 Bft)
08.02.2009 11:00 1.5 C 97 % 1004.4 hPa 0.0 l/m 0.5 km/h (0 Bft) NW 0.00 h 105 W/m 1.0 C 1.5 C 1.6 km/h (1 Bft)
08.02.2009 12:00 1.5 C 95 % 1005.1 hPa 0.0 l/m 0.8 km/h (0 Bft) S 0.00 h 103 W/m 0.8 C 1.5 C 1.7 km/h (1 Bft)
08.02.2009 13:00 1.4 C 96 % 1005.7 hPa 0.0 l/m 2.0 km/h (1 Bft) S 0.00 h 105 W/m 0.8 C 1.3 C 3.6 km/h (1 Bft)
08.02.2009 14:00 2.1 C 88 % 1006.0 hPa 0.0 l/m 4.7 km/h (1 Bft) W-NW 0.00 h 140 W/m 0.3 C 0.9 C 8.1 km/h (2 Bft)
08.02.2009 15:00 2.5 C 76 % 1006.5 hPa 0.0 l/m 5.5 km/h (1 Bft) W-NW 0.00 h 122 W/m -1.3 C 1.2 C 8.5 km/h (2 Bft)
08.02.2009 16:00 1.9 C 81 % 1007.1 hPa 0.0 l/m 8.3 km/h (2 Bft) W 0.00 h 43 W/m -1.0 C -0.5 C 13.4 km/h (3 Bft)
08.02.2009 17:00 1.2 C 85 % 1008.1 hPa 0.0 l/m 6.8 km/h (2 Bft) W 0.00 h 7 W/m -1.1 C -0.8 C 11.7 km/h (2 Bft)
08.02.2009 18:00 0.9 C 85 % 1008.9 hPa 0.0 l/m 5.9 km/h (2 Bft) W-SW 0.00 h 0 W/m -1.3 C -0.7 C 9.5 km/h (2 Bft)
08.02.2009 19:00 0.7 C 86 % 1009.3 hPa 0.0 l/m 2.3 km/h (1 Bft) SW 0.00 h 0 W/m -1.5 C 0.3 C 4.4 km/h (1 Bft)
08.02.2009 20:00 0.5 C 83 % 1009.6 hPa 0.0 l/m 2.6 km/h (1 Bft) N 0.00 h 0 W/m -2.1 C 0.2 C 5.0 km/h (1 Bft)
08.02.2009 21:00 0.5 C 80 % 1010.4 hPa 0.0 l/m 1.1 km/h (1 Bft) SW 0.00 h 0 W/m -2.6 C 0.5 C 2.9 km/h (1 Bft)
08.02.2009 22:00 0.4 C 79 % 1011.1 hPa 0.0 l/m 1.5 km/h (1 Bft) S 0.00 h 0 W/m -2.8 C 0.3 C 3.3 km/h (1 Bft)
08.02.2009 23:00 0.3 C 79 % 1011.3 hPa 0.0 l/m 1.8 km/h (1 Bft) S-SO 0.00 h 0 W/m -2.9 C 0.2 C 3.9 km/h (1 Bft)
Min-Datum _ 03.02.09 03.02.09 07.02.09 - 02.02.09 - - - 03.02.09 02.02.09 02.02.09
_ Min-Zeit 08:19 15:51 04:00 - 00:00 - - - 08:19 05:25 00:00
Minimum _ -4.0 C 54 % 987.5 hPa - 0.0 km/h (0 Bft) - - - -4.8 C -7.0 C 0.0 km/h (0 Bft)
Max-Datum _ 03.02.09 05.02.09 08.02.09 08.02.09 07.02.09 - 02.02.09 04.02.09 06.02.09 03.02.09 07.02.09
_ Max-Zeit 15:49 07:36 23:30 01:11 12:18 - 13:51 12:31 12:04 15:48 14:37
Maximum _ 10.1 C 99 % 1011.4 hPa 1.0 l/m 15.6 km/h
W (3 Bft)
- 0.02 h 512 W/m 3.6 C 10.1 C 24.3 km/h
W (4 Bft)
Durchschnitt _ 1.8 C 86 % 997.6 hPa #7.0 l/m 1.8 km/h (1 Bft) O-SO #18:27 h 125 W/m -0.3 C 1.6 C 3.3 km/h (1 Bft)
© Kaiko 2009